^^

Flughafenwetter in der weiteren Umgebung

 

EDVE - Braunschweig, Germany
Entfernung von Station: N 5 km
Aktualisierung: 27.04.2018 07:50
Klar
Klar
 Wind von S
Wind: S 9 km/h
Temperatur: 7°C
Wind Chill: 6°C
Taupunkt: 4°C
Luftfeuchte: 81%
Luftdruck: 1016 hPa
Zusammenfassung: Klar
Sicht: mehr als 10 km
2018/04/27 05:50 EDVE 270550Z 17005KT CAVOK 07/04 Q1016
ETHC - Celle (ger-Army), Germany
Entfernung von Station: NW 51 km
Aktualisierung: 27.04.2018 08:20
stark bewölkt
stark bewölkt
 Wind von S
Wind: S 7 km/h
Temperatur: 7°C
Wind Chill: 6°C
Taupunkt: 5°C
Luftfeuchte: 87%
Luftdruck: 1015 hPa
Wolken: stark bewölkt
Sicht: 10 km
Wolken Details: leicht bewölkt 2743 m
stark bewölkt 5791 m
2018/04/27 06:20 ETHC 270620Z 18004KT 9999 FEW090 BKN190 07/05 Q1015 BLU BLU+ TEMPO BLU
 
EDDV - Hannover, Germany
Entfernung von Station: WNW 62 km
Aktualisierung: 27.04.2018 08:20
Klar
Klar
 Wind von SSO
Wind: SSO 11 km/h
Temperatur: 8°C
Wind Chill: 6°C
Taupunkt: 5°C
Luftfeuchte: 82%
Luftdruck: 1015 hPa
Zusammenfassung: Klar
Sicht: mehr als 10 km
2018/04/27 06:20 EDDV 270620Z 16006KT 130V200 CAVOK 08/05 Q1015 NOSIG
ETHS - Fassberg (ger-Af, Germany
Entfernung von Station: NNW 75 km
Aktualisierung: 27.04.2018 08:20
stark bewölkt
stark bewölkt
 Wind von WSW
Wind: WSW 9 km/h
Temperatur: 7°C
Wind Chill: 6°C
Taupunkt: 4°C
Luftfeuchte: 81%
Luftdruck: 1015 hPa
Wolken: stark bewölkt
Sicht: 10 km
Wolken Details: leicht bewölkt 6706 m
stark bewölkt 9144 m
2018/04/27 06:20 ETHS 270620Z 25005KT 9999 SCT220 BKN300 07/04 Q1015 BLU+BLU+
 
EDBC - Cochstedt Arpt, Germany
Entfernung von Station: SO 76 km
Aktualisierung: 24.07.2017 17:20
nicht aktuell
leichter Regen, stark bewölkt
leichter Regen, stark bewölkt
 Wind von N
Wind: N 11 km/h
Temperatur: 16°C
Taupunkt: 16°C
Luftfeuchte: 100%
Luftdruck: 1007 hPa
Zusammenfassung: Nieselregen
Wolken: stark bewölkt
Sicht: 10 km
Wolken Details: leicht bewölkt 914 m
stark bewölkt 1981 m
2017/07/24 15:20 EDBC 241520Z 35006KT 9999 -RA SCT030 BKN065 16/16 Q1007
ETNW - Wunstorf (ger-Af, Germany
Entfernung von Station: WNW 79 km
Aktualisierung: 27.04.2018 08:20
leicht bewölkt
leicht bewölkt
 Wind von S
Wind: S 11 km/h
Temperatur: 8°C
Wind Chill: 6°C
Taupunkt: 5°C
Luftfeuchte: 82%
Luftdruck: 1015 hPa
Wolken: leicht bewölkt
Sicht: 10 km
Wolken Details: leicht bewölkt 610 m
leicht bewölkt 6401 m
2018/04/27 06:20 ETNW 270620Z 17006KT 9999 FEW020 SCT210 08/05 Q1015 BLU+BLU+
 
ETHB - Buckeburg(Ger-Ar, Germany
Entfernung von Station: W 101 km
Aktualisierung: 27.04.2018 08:20
stark bewölkt
stark bewölkt
 Wind von S
Wind: S 15 km/h
Temperatur: 8°C
Wind Chill: 5°C
Taupunkt: 4°C
Luftfeuchte: 76%
Luftdruck: 1015 hPa
Wolken: stark bewölkt
Sicht: 10 km
Wolken Details: leicht bewölkt 6096 m
stark bewölkt 9754 m
2018/04/27 06:20 ETHB 270620Z 18008KT 9999 FEW200 BKN320 08/04 Q1015 BLU+BLU+
ETGQ - Rotenburg, Germany
Entfernung von Station: NW 125 km
Aktualisierung: 10.10.2016 06:20
nicht aktuell

 Wind von veränderlich
Wind: veränderlich 0 km/h
Temperatur: 4°C
Taupunkt: 3°C
Luftfeuchte: 93%
Luftdruck: 1025 hPa
2016/10/10 04:20 ETGQ 100420Z AUTO /////KT //// // ////// 04/03 Q1025 ///
 
EDVK - Kassel/Calden, Germany
Entfernung von Station: SW 128 km
Aktualisierung: 27.04.2018 08:20
Klar
Klar
 Wind von SSO
Wind: SSO 11 km/h
Temperatur: 7°C
Wind Chill: 5°C
Taupunkt: 4°C
Luftfeuchte: 81%
Luftdruck: 1015 hPa
Zusammenfassung: Klar
Sicht: mehr als 10 km
2018/04/27 06:20 EDVK 270620Z 15006KT CAVOK 07/04 Q1015
EDDW - Bremen, Germany
Entfernung von Station: NW 145 km
Aktualisierung: 27.04.2018 08:20
Klar
Klar
 Wind von SSW
Wind: SSW 13 km/h
Temperatur: 8°C
Wind Chill: 6°C
Taupunkt: 5°C
Luftfeuchte: 82%
Luftdruck: 1014 hPa
Zusammenfassung: Klar
Sicht: mehr als 10 km
2018/04/27 06:20 EDDW 270620Z 20007KT CAVOK 08/05 Q1014 NOSIG
 
EDDE - Erfurt, Germany
Entfernung von Station: SSO 148 km
Aktualisierung: 27.04.2018 08:20
Klar
Klar
 Wind von S
Wind: S 15 km/h
Temperatur: 7°C
Wind Chill: 4°C
Taupunkt: 3°C
Luftfeuchte: 76%
Luftdruck: 1016 hPa
Zusammenfassung: Klar
Sicht: mehr als 10 km
2018/04/27 06:20 EDDE 270620Z 19008KT CAVOK 07/03 Q1016 NOSIG
EDLP - Paderborn, Germany
Entfernung von Station: WSW 135 km
Aktualisierung: 27.04.2018 08:20
Klar
Klar
 Wind von SSO
Wind: SSO 11 km/h
Temperatur: 9°C
Wind Chill: 7°C
Taupunkt: 3°C
Luftfeuchte: 66%
Luftdruck: 1015 hPa
Zusammenfassung: Klar
Sicht: mehr als 10 km
2018/04/27 06:20 EDLP 270620Z 16006KT CAVOK 09/03 Q1015
 
EDHI - Hamburg/Finkenwe, Germany
Entfernung von Station: NNW 148 km
Aktualisierung: 27.04.2018 08:20
Klar
Klar
 Wind von SW
Wind: SW 13 km/h
Temperatur: 8°C
Wind Chill: 6°C
Taupunkt: 5°C
Luftfeuchte: 82%
Luftdruck: 1014 hPa
Zusammenfassung: Klar
Sicht: mehr als 10 km
2018/04/27 06:20 EDHI 270620Z 22007KT 190V260 CAVOK 08/05 Q1014
EDDP - Leipzig/Schkeudi, Germany
Entfernung von Station: SO 149 km
Aktualisierung: 27.04.2018 08:20
Klar
Klar
 Wind von SSO
Wind: SSO 7 km/h
Temperatur: 9°C
Wind Chill: 8°C
Taupunkt: 6°C
Luftfeuchte: 82%
Luftdruck: 1017 hPa
Zusammenfassung: Klar
Sicht: mehr als 10 km
2018/04/27 06:20 EDDP 270620Z 15004KT CAVOK 09/06 Q1017 NOSIG
 
EDDP - Leipzig/Halle, Germany
Entfernung von Station: SO 149 km
Aktualisierung: 27.04.2018 08:20
Klar
Klar
 Wind von SSO
Wind: SSO 7 km/h
Temperatur: 9°C
Wind Chill: 8°C
Taupunkt: 6°C
Luftfeuchte: 82%
Luftdruck: 1017 hPa
Zusammenfassung: Klar
Sicht: mehr als 10 km
2018/04/27 06:20 EDDP 270620Z 15004KT CAVOK 09/06 Q1017 NOSIG
EDOP - Schwerin-Parchim, Germany
Entfernung von Station: NNO 153 km
Aktualisierung: 20.04.2018 16:50
nicht aktuell
Klar
Klar
 Wind von SW
Wind: SW 26 km/h
Temperatur: 27°C
Taupunkt: 7°C
Luftfeuchte: 28%
Luftdruck: 1019 hPa
Zusammenfassung: Klar
Sicht: mehr als 10 km
2018/04/20 14:50 EDOP 201450Z 22014KT CAVOK 27/07 Q1019
 
ETND - Diepholz (ger-Af, Germany
Entfernung von Station: WNW 153 km
Aktualisierung: 27.04.2018 08:20
stark bewölkt
stark bewölkt
 Wind von SSW
Wind: SSW 7 km/h
Temperatur: 7°C
Wind Chill: 6°C
Taupunkt: 5°C
Luftfeuchte: 87%
Luftdruck: 1014 hPa
Wolken: stark bewölkt
Sicht: 10 km
Wolken Details: leicht bewölkt 4267 m
stark bewölkt 7010 m
2018/04/27 06:20 ETND 270620Z 21004KT 9999 FEW140 BKN230 07/05 Q1014 BLU+
EDDH - Hamburg, Germany
Entfernung von Station: NNW 154 km
Aktualisierung: 27.04.2018 08:20
Klar
Klar
 Wind von SW
Wind: SW 17 km/h
Temperatur: 8°C
Wind Chill: 5°C
Taupunkt: 5°C
Luftfeuchte: 82%
Luftdruck: 1014 hPa
Zusammenfassung: Klar
Sicht: mehr als 10 km
2018/04/27 06:20 EDDH 270620Z 22009KT CAVOK 08/05 Q1014 NOSIG
 
ETHF - Fritzlar (ger-Ar, Germany
Entfernung von Station: SW 156 km
Aktualisierung: 27.04.2018 08:20
stark bewölkt
stark bewölkt
 Wind von veränderlich
Wind: veränderlich 2 km/h
Temperatur: 6°C
Taupunkt: 3°C
Luftfeuchte: 81%
Luftdruck: 1016 hPa
Wolken: stark bewölkt
Sicht: 10 km
Wolken Details: leicht bewölkt 4267 m
stark bewölkt 9754 m
2018/04/27 06:20 ETHF 270620Z VRB01KT 9999 FEW140 BKN320 06/03 Q1016 BLU+BLU
EDHL - Luebeck, Germany
Entfernung von Station: N 178 km
Aktualisierung: 27.04.2018 08:20
Klar
Klar
 Wind von S
Wind: S 13 km/h
Temperatur: 8°C
Wind Chill: 6°C
Taupunkt: 5°C
Luftfeuchte: 82%
Luftdruck: 1014 hPa
Zusammenfassung: Klar
Sicht: mehr als 10 km
2018/04/27 06:20 EDHL 270620Z 19007KT CAVOK 08/05 Q1014
 
ETSH - Holzdorf, Germany
Entfernung von Station: OSO 188 km
Aktualisierung: 27.04.2018 08:20
stark bewölkt
stark bewölkt
 Wind von veränderlich
Wind: veränderlich 6 km/h
Temperatur: 8°C
Taupunkt: 6°C
Luftfeuchte: 87%
Luftdruck: 1017 hPa
Wolken: stark bewölkt
Sicht: 10 km
Wolken Details: leicht bewölkt 1829 m
stark bewölkt 8534 m
2018/04/27 06:20 ETSH 270620Z VRB03KT 9999 FEW060 BKN280 08/06 Q1017 BLU+BLU+
EDDT - Berlin-Tegel, Germany
Entfernung von Station: ONO 190 km
Aktualisierung: 27.04.2018 08:20
Klar
Klar
 Wind von SSW
Wind: SSW 9 km/h
Temperatur: 9°C
Wind Chill: 7°C
Taupunkt: 5°C
Luftfeuchte: 76%
Luftdruck: 1017 hPa
Zusammenfassung: Klar
Sicht: mehr als 10 km
2018/04/27 06:20 EDDT 270620Z 20005KT 170V240 CAVOK 09/05 Q1017 NOSIG
 
ETNL - Rostock-Laage, Germany
Entfernung von Station: NO 217 km
Aktualisierung: 27.04.2018 08:20
stark bewölkt
stark bewölkt
 Wind von SW
Wind: SW 13 km/h
Temperatur: 8°C
Wind Chill: 6°C
Taupunkt: 5°C
Luftfeuchte: 82%
Luftdruck: 1014 hPa
Wolken: stark bewölkt
Sicht: 10 km
Wolken Details: leicht bewölkt 1829 m
stark bewölkt 6706 m
2018/04/27 06:20 ETNL 270620Z 23007KT 9999 FEW060 BKN220 08/05 Q1014 BLU+BLU+
EDLW - Dortmund, Germany
Entfernung von Station: WSW 217 km
Aktualisierung: 27.04.2018 08:20
Klar
Klar
 Wind von S
Wind: S 15 km/h
Temperatur: 7°C
Wind Chill: 4°C
Taupunkt: 3°C
Luftfeuchte: 76%
Luftdruck: 1014 hPa
Zusammenfassung: Klar
Sicht: mehr als 10 km
2018/04/27 06:20 EDLW 270620Z 17008KT 150V210 CAVOK 07/03 Q1014
 
EDDK - Koeln/Bonn, Germany
Entfernung von Station: WSW 282 km
Aktualisierung: 27.04.2018 08:20
Klar
Klar
 Wind von OSO
Wind: OSO 11 km/h
Temperatur: 8°C
Wind Chill: 6°C
Taupunkt: 3°C
Luftfeuchte: 71%
Luftdruck: 1014 hPa
Zusammenfassung: Klar
Sicht: mehr als 10 km
2018/04/27 06:20 EDDK 270620Z 12006KT 090V150 CAVOK 08/03 Q1014 NOSIG
EDDL - Düsseldorf, Germany
Entfernung von Station: WSW 282 km
Aktualisierung: 27.04.2018 08:20
Klar
Klar
 Wind von S
Wind: S 17 km/h
Temperatur: 9°C
Wind Chill: 7°C
Taupunkt: 4°C
Luftfeuchte: 71%
Luftdruck: 1014 hPa
Zusammenfassung: Klar
Sicht: mehr als 10 km
2018/04/27 06:20 EDDL 270620Z 17009KT CAVOK 09/04 Q1014 NOSIG
 
EDDF - Frankfurt Main, Germany
Entfernung von Station: SSW 285 km
Aktualisierung: 27.04.2018 08:20
Klar
Klar
 Wind von veränderlich
Wind: veränderlich 4 km/h
Temperatur: 9°C
Taupunkt: 3°C
Luftfeuchte: 66%
Luftdruck: 1016 hPa
Zusammenfassung: Klar
Sicht: mehr als 10 km
2018/04/27 06:20 EDDF 270620Z VRB02KT CAVOK 09/03 Q1016 NOSIG
EDDS - Stuttgart, Germany
Entfernung von Station: SSW 413 km
Aktualisierung: 27.04.2018 08:20
Klar
Klar
 Wind von veränderlich
Wind: veränderlich 4 km/h
Temperatur: 7°C
Taupunkt: 3°C
Luftfeuchte: 76%
Luftdruck: 1015 hPa
Zusammenfassung: Klar
Sicht: mehr als 10 km
2018/04/27 06:20 EDDS 270620Z VRB02KT CAVOK 07/03 Q1015 NOSIG
 
EDDR - Saarbrücken, Germany
Entfernung von Station: SW 418 km
Aktualisierung: 27.04.2018 08:20
Klar
Klar
 Wind von O
Wind: O 7 km/h
Temperatur: 7°C
Wind Chill: 6°C
Taupunkt: 3°C
Luftfeuchte: 76%
Luftdruck: 1014 hPa
Zusammenfassung: Klar
Sicht: mehr als 10 km
2018/04/27 06:20 EDDR 270620Z 08004KT CAVOK 07/03 Q1014 NOSIG
EDDM - München, Germany
Entfernung von Station: SSO 445 km
Aktualisierung: 27.04.2018 08:20
Klar
Klar
 Wind von ONO
Wind: ONO 7 km/h
Temperatur: 9°C
Wind Chill: 8°C
Taupunkt: 6°C
Luftfeuchte: 82%
Luftdruck: 1016 hPa
Zusammenfassung: Klar
Sicht: mehr als 10 km
2018/04/27 06:20 EDDM 270620Z 07004KT 040V100 CAVOK 09/06 Q1016 NOSIG
 
LOWI - Innsbruck, Austria
Entfernung von Station: WSW 566 km
Aktualisierung: 27.04.2018 08:20
leicht bewölkt
leicht bewölkt
 Wind von veränderlich
Wind: veränderlich 4 km/h
Temperatur: 8°C
Taupunkt: 6°C
Luftfeuchte: 87%
Luftdruck: 1016 hPa
Wolken: leicht bewölkt
Sicht: 9 km
Wolken Details: leicht bewölkt 305 m
leicht bewölkt 396 m
2018/04/27 06:20 LOWI 270620Z VRB02KT 9000 FEW010 SCT013 08/06 Q1016 NOSIG
Besucherstatistik
Besucher gesamt: 1.006.104
Besucher heute: 215
Besucher gestern: 901
gerade online: 10
aufrufe diese Seite: 4.196
counter Statistiken